Hidden Valley, Texas
Current Conditions -  °F | °C
As of 2:55 PM on Tuesday 21 Oct 2014 (Local Time) from KOCH Reporting Station
Clear Clear  
Wind Chill: 81°   Ceiling: Unl
Heat Index: 81°   Visibility: 10mi
Dew Point: 61°   Wind: 6mph
Humidity: 51%   Direction: 20°NNE
Pressure: 30.04"   Gusts: NA
Location:  31.7931°N, 94.5281°W
Report Text: KOCH 211955Z AUTO 02005KT 10SM CLR 27/16 A3004 RMK AO1
Loading
Personal Weather Stations






























Interactive Weather Map
Tropical Storm Tracking
New forecast layout! Learn more

10-Day Weather Forecast

Advertisements
Track Severe Weather on mobile